• Join FlightAware (Why Join?)
  • Login
  • US Flag 
01:38AM EDT


 

Airport Tracker/Info


-or-


 

Live Flight TrackerFlight Track Log ✈ N92EJ ✈ 01-Dec-2013 ✈ N66 - KISP

Flight Track Log - Related Links

Times and Time Zones

All times are in EST time to prevent confusion due to time zone crossing. See the N92EJ flight status page for this flight to view local times or setup timezone preferences in your user account.

Time Position Orientation Groundspeed Altitude Reporting Facility
EST Latitude Longitude Course Direction KTS MPH feet Rate Location/Type
04:36PM 42.4444 -74.9764 143° Southeast 103 119 5,200  Level Boston Center
04:37PM 42.4164 -74.9503 146° Southeast 116 133 5,400 120 Climbing Boston Center
04:38PM 42.3806 -74.9167 145° Southeast 147 169 5,500  Climbing Boston Center
04:39PM 42.3464 -74.8808 142° Southeast 154 177 5,500  Level Boston Center
04:40PM 42.3078 -74.8339 138° Southeast 156 180 5,500  Level Boston Center
04:41PM 42.2750 -74.7939 138° Southeast 158 182 5,500  Level Boston Center
04:43PM 42.2414 -74.7567 141° Southeast 158 182 5,500  Level Boston Center
04:44PM 42.2094 -74.7164 137° Southeast 157 181 5,500  Level Boston Center
04:45PM 42.1772 -74.6783 139° Southeast 155 178 5,500  Level Boston Center
04:46PM 42.1453 -74.6417 140° Southeast 152 175 5,500  Level Boston Center
04:47PM 42.1125 -74.6025 138° Southeast 156 180 5,500  Level Boston Center
04:48PM 42.0811 -74.5650 138° Southeast 153 176 5,500  Level Boston Center
04:49PM 42.0167 -74.5000 143° Southeast 166 191 5,600  Climbing New York TRACON
04:50PM 41.9833 -74.4667 143° Southeast 159 183 5,600  Level New York TRACON
04:51PM 41.9500 -74.4167 132° Southeast 162 186 5,600  Level New York TRACON
04:52PM 41.9167 -74.3833 143° Southeast 159 183 5,600  Level New York TRACON
04:54PM 41.8667 -74.3167 135° Southeast 163 188 5,600  Level New York TRACON
04:55PM 41.8333 -74.2833 143° Southeast 161 185 5,600  Level New York TRACON
04:56PM 41.8000 -74.2500 143° Southeast 164 189 5,600  Level New York TRACON
04:57PM 41.7667 -74.2000 132° Southeast 162 186 5,600  Level New York TRACON
04:58PM 41.7333 -74.1667 143° Southeast 164 189 5,600  Level New York TRACON
04:59PM 41.7000 -74.1167 132° Southeast 165 190 5,600  Level New York TRACON
05:00PM 41.6667 -74.0833 143° Southeast 166 191 5,600  Level New York TRACON
05:01PM 41.6333 -74.0333 132° Southeast 166 191 5,600  Level New York TRACON
05:02PM 41.6000 -74.0000 143° Southeast 167 192 5,600  Level New York TRACON
05:03PM 41.5667 -73.9667 143° Southeast 166 191 5,600  Level New York TRACON
05:04PM 41.5333 -73.9167 132° Southeast 167 192 5,600  Level New York TRACON
05:05PM 41.5000 -73.8833 143° Southeast 166 191 5,600 -60 Level New York TRACON
05:06PM 41.4667 -73.8500 143° Southeast 167 192 5,500 -120 Descending New York TRACON
05:07PM 41.4167 -73.8000 143° Southeast 170 196 5,400  Descending New York TRACON
05:08PM 41.3833 -73.7667 143° Southeast 166 191 5,500  Climbing New York TRACON
05:09PM 41.3500 -73.7167 132° Southeast 166 191 5,500  Level New York TRACON
05:10PM 41.3167 -73.6833 143° Southeast 167 192 5,500  Level New York TRACON
05:11PM 41.2833 -73.6500 143° Southeast 166 191 5,500  Level New York TRACON
05:12PM 41.2500 -73.6000 132° Southeast 166 191 5,500  Level New York TRACON
05:13PM 41.2167 -73.5667 143° Southeast 163 188 5,500  Level New York TRACON
05:14PM 41.1833 -73.5333 143° Southeast 163 188 5,500  Level New York TRACON
05:15PM 41.1500 -73.4833 132° Southeast 164 189 5,500 -180 Level New York TRACON
05:16PM 41.1000 -73.4500 153° Southeast 168 193 5,200 -300 Descending New York TRACON
05:17PM 41.0833 -73.4167 124° Southeast 161 185 5,000 -360 Descending New York TRACON
05:18PM 41.0333 -73.3667 143° Southeast 165 190 4,500 -480 Descending New York TRACON
05:19PM 41.0000 -73.3333 143° Southeast 167 192 4,100 -540 Descending New York TRACON
05:20PM 40.9667 -73.3000 143° Southeast 168 193 3,500 -480 Descending New York TRACON
05:21PM 40.9333 -73.2500 131° Southeast 164 189 3,200 -420 Descending New York TRACON
05:22PM 40.9000 -73.2167 143° Southeast 167 192 2,700 -480 Descending New York TRACON
05:23PM 40.8500 -73.2000 166° South 163 188 2,300 -360 Descending New York TRACON
05:24PM 40.8167 -73.1833 159° South 139 160 2,000 -420 Descending New York TRACON
05:25PM 40.7833 -73.1667 159° South 108 124 1,500 -480 Descending New York TRACON
05:26PM 40.7667 -73.1500 143° Southeast 99 114 1,100 -600 Descending New York TRACON
05:27PM 40.7833 -73.1167 57° Northeast 92 106 400 -720 Descending New York TRACON
05:29PM 40.7952 -73.1002 90° East  Level Estimated